Time;durP1;ratioP1;P1;durP2;ratioP2;P2;SDS_P1;SDS_P2;PMS_P1;PMS_P2;Temp;Humidity;BMP_temperature;BMP_pressure;BME280_temperature;BME280_humidity;BME280_pressure;Samples;Min_cycle;Max_cycle;Signal;HPM_P1;HPM_P2
2021/12/05 00:18:31;;;;;;;10.57;4.10;;;;;;;;;;4925547;29;20086;-76
2021/12/05 00:23:47;;;;;;;11.20;4.60;;;;;;;;;;4930150;29;20516;-77
2021/12/05 00:26:17;;;;;;;13.37;4.17;;;4.10;99.90;;;;;;4950100;29;20559;-77
2021/12/05 00:29:09;;;;;;;14.00;4.57;;;4.00;99.90;;;;;;4960367;28;20039;-77
2021/12/05 00:45:28;;;;;;;10.50;4.03;;;3.90;99.90;;;;;;4947751;29;20123;-77
2021/12/05 00:48:39;;;;;;;8.23;3.67;;;3.60;99.90;;;;;;4951291;29;20059;-77
2021/12/05 00:51:10;;;;;;;9.67;4.67;;;4.00;99.90;;;;;;4946244;28;20365;-77
2021/12/05 01:04:32;;;;;;;;;;;3.80;99.90;;;;;;4951476;29;20066;-77
2021/12/05 01:09:45;;;;;;;14.80;5.17;;;;;;;;;;4955352;28;20023;-76
2021/12/05 01:17:29;;;;;;;17.17;4.83;;;;;;;;;;4954212;29;20515;-76
2021/12/05 01:19:55;;;;;;;12.67;4.10;;;3.70;99.90;;;;;;4954576;28;20027;-77
2021/12/05 01:22:22;;;;;;;11.63;3.30;;;4.00;99.90;;;;;;4954825;28;20514;-77
2021/12/05 01:25:02;;;;;;;17.33;4.67;;;4.00;99.90;;;;;;4955034;28;20031;-76
2021/12/05 01:27:38;;;;;;;8.33;3.10;;;4.20;99.90;;;;;;4954549;28;20051;-77
2021/12/05 01:30:30;;;;;;;13.97;4.13;;;4.10;99.90;;;;;;4953067;29;20532;-76
2021/12/05 01:33:09;;;;;;;9.23;3.30;;;;;;;;;;4953788;28;20035;-77
2021/12/05 01:36:03;;;;;;;8.63;3.27;;;4.20;99.90;;;;;;4952939;28;20069;-76
2021/12/05 01:41:30;;;;;;;12.33;3.80;;;4.10;99.90;;;;;;4954172;28;20027;-76
2021/12/05 01:54:37;;;;;;;14.80;3.37;;;4.20;99.90;;;;;;4954538;29;20027;-76
2021/12/05 02:15:59;;;;;;;8.57;2.80;;;3.80;99.90;;;;;;4954203;29;20034;-76
2021/12/05 02:29:59;;;;;;;10.83;3.23;;;3.70;99.90;;;;;;4954072;29;20030;-76
2021/12/05 02:32:51;;;;;;;8.53;2.53;;;3.70;99.90;;;;;;4954166;29;20039;-77
2021/12/05 02:45:18;;;;;;;11.17;3.57;;;3.70;99.90;;;;;;4954222;28;20468;-76
2021/12/05 02:47:49;;;;;;;12.43;3.67;;;3.70;99.90;;;;;;4953488;28;20035;-76
2021/12/05 02:50:17;;;;;;;11.53;3.03;;;4.10;99.90;;;;;;4953665;28;20090;-76
2021/12/05 02:52:43;;;;;;;13.70;4.17;;;;;;;;;;4954003;28;20516;-76
2021/12/05 02:55:24;;;;;;;13.83;4.13;;;3.60;99.90;;;;;;4952862;28;20032;-76
2021/12/05 02:57:57;;;;;;;8.50;2.70;;;;;;;;;;4953294;28;20472;-76
2021/12/05 03:00:38;;;;;;;22.67;4.50;;;3.60;99.90;;;;;;4953554;28;20035;-76
2021/12/05 03:03:05;;;;;;;11.30;4.00;;;3.70;99.90;;;;;;4953075;28;20055;-76
2021/12/05 03:05:31;;;;;;;14.17;4.17;;;3.60;99.90;;;;;;4942084;28;20040;-76
2021/12/05 03:08:01;;;;;;;17.77;3.90;;;3.60;99.90;;;;;;4933069;29;20058;-76
2021/12/05 03:10:28;;;;;;;11.50;4.10;;;4.00;99.90;;;;;;4934377;29;20028;-76
2021/12/05 03:12:54;;;;;;;12.43;4.90;;;4.20;99.90;;;;;;4933728;29;20032;-76
2021/12/05 03:15:20;;;;;;;10.60;3.83;;;3.70;99.90;;;;;;4933405;29;20034;-76
2021/12/05 03:17:46;;;;;;;12.53;3.80;;;3.70;99.90;;;;;;4933827;29;20042;-76
2021/12/05 03:20:13;;;;;;;10.43;4.00;;;3.60;99.90;;;;;;4934035;29;20031;-76
2021/12/05 03:22:39;;;;;;;11.10;3.30;;;;;;;;;;4948152;29;20052;-76
2021/12/05 03:25:06;;;;;;;22.40;4.77;;;3.50;99.90;;;;;;4951803;29;20578;-76
2021/12/05 03:27:34;;;;;;;16.37;4.60;;;3.50;99.90;;;;;;4953327;29;20035;-76
2021/12/05 03:30:00;;;;;;;14.30;3.47;;;;;;;;;;4952780;28;20027;-76
2021/12/05 03:32:26;;;;;;;10.77;3.13;;;;;;;;;;4953419;28;20031;-76
2021/12/05 03:34:52;;;;;;;15.80;4.03;;;;;;;;;;4952590;28;20086;-76
2021/12/05 03:37:17;;;;;;;12.43;3.50;;;3.50;99.90;;;;;;4967451;28;20081;-76
2021/12/05 03:39:43;;;;;;;10.53;3.20;;;3.60;99.90;;;;;;4937971;29;20047;-76
2021/12/05 03:42:09;;;;;;;10.47;3.27;;;;;;;;;;4933402;29;20450;-76
2021/12/05 03:44:37;;;;;;;12.33;3.93;;;3.40;99.90;;;;;;4933611;29;20063;-76
2021/12/05 03:47:07;;;;;;;19.77;5.67;;;3.40;99.90;;;;;;4939428;29;20361;-76
2021/12/05 03:49:33;;;;;;;11.83;3.87;;;3.60;99.90;;;;;;4967457;28;20114;-75
2021/12/05 03:52:04;;;;;;;13.60;4.27;;;3.60;99.90;;;;;;4951819;28;20119;-76
2021/12/05 03:54:30;;;;;;;18.70;4.10;;;3.70;99.90;;;;;;4952410;28;20074;-76
2021/12/05 03:56:57;;;;;;;11.20;3.73;;;3.70;99.90;;;;;;4966446;28;20035;-76
2021/12/05 03:59:27;;;;;;;6.67;2.40;;;;;;;;;;4941593;28;20093;-76
2021/12/05 04:01:53;;;;;;;8.53;3.03;;;3.70;99.90;;;;;;4932624;29;20462;-76
2021/12/05 04:04:19;;;;;;;8.17;4.27;;;;;;;;;;4932756;29;20058;-76
2021/12/05 04:06:46;;;;;;;16.53;3.23;;;3.90;99.90;;;;;;4931331;29;20087;-76
2021/12/05 04:09:12;;;;;;;12.70;4.63;;;3.70;99.90;;;;;;4932992;29;20023;-76
2021/12/05 04:11:43;;;;;;;11.13;4.43;;;3.80;99.90;;;;;;4933285;29;20035;-76
2021/12/05 04:14:11;;;;;;;13.37;4.57;;;3.90;99.90;;;;;;4947915;29;20348;-76
2021/12/05 04:16:38;;;;;;;11.60;4.03;;;3.80;99.90;;;;;;4949496;29;20082;-76
2021/12/05 04:19:05;;;;;;;10.20;4.03;;;3.90;99.90;;;;;;4966508;28;20432;-76
2021/12/05 04:21:32;;;;;;;10.77;4.40;;;4.00;99.90;;;;;;4952075;28;20031;-76
2021/12/05 04:23:59;;;;;;;9.87;4.47;;;3.90;99.90;;;;;;4951375;28;20512;-76
2021/12/05 04:26:25;;;;;;;18.80;5.27;;;4.10;99.90;;;;;;4951952;28;20137;-75
2021/12/05 04:28:51;;;;;;;14.30;4.53;;;4.00;99.90;;;;;;4966526;28;20147;-76
2021/12/05 04:31:20;;;;;;;13.83;4.53;;;3.90;99.90;;;;;;4952071;29;20057;-76
2021/12/05 04:33:46;;;;;;;14.60;5.23;;;3.90;99.90;;;;;;4952079;28;20465;-76
2021/12/05 04:36:12;;;;;;;11.10;4.00;;;4.10;99.90;;;;;;4951463;28;20035;-76
2021/12/05 04:38:38;;;;;;;11.20;4.73;;;3.90;99.90;;;;;;4935662;29;20042;-76
2021/12/05 04:41:04;;;;;;;13.53;4.60;;;4.10;99.90;;;;;;4932424;29;20082;-76
2021/12/05 04:43:38;;;;;;;12.93;4.50;;;;;;;;;;4938342;29;20103;-75
2021/12/05 04:46:11;;;;;;;11.38;4.18;;;4.00;99.90;;;;;;4951640;28;20461;-77
2021/12/05 04:48:37;;;;;;;15.07;4.60;;;3.70;99.90;;;;;;4952349;28;20202;-76
2021/12/05 04:51:03;;;;;;;14.40;6.67;;;4.20;99.90;;;;;;4950036;29;20740;-76
2021/12/05 04:53:29;;;;;;;10.43;5.40;;;4.20;99.90;;;;;;4937533;28;20038;-76
2021/12/05 04:55:56;;;;;;;16.40;6.40;;;4.20;99.90;;;;;;4932451;29;20106;-76
2021/12/05 04:58:23;;;;;;;13.17;4.90;;;4.20;99.90;;;;;;4933149;29;20058;-76
2021/12/05 05:00:50;;;;;;;16.57;6.30;;;4.30;99.90;;;;;;4947379;29;20545;-76
2021/12/05 05:03:16;;;;;;;10.60;6.10;;;4.30;99.90;;;;;;4932782;29;20024;-76
2021/12/05 05:05:52;;;;;;;15.60;6.47;;;4.20;99.90;;;;;;4932852;29;20044;-76
2021/12/05 05:08:19;;;;;;;11.47;5.03;;;4.20;99.90;;;;;;4932812;29;20059;-76
2021/12/05 05:10:45;;;;;;;10.50;5.40;;;4.00;99.90;;;;;;4932676;29;20039;-76
2021/12/05 05:13:11;;;;;;;10.27;5.67;;;4.20;99.90;;;;;;4932619;29;20990;-76
2021/12/05 05:15:37;;;;;;;16.37;5.87;;;4.30;99.90;;;;;;4932978;29;20059;-76
2021/12/05 05:18:04;;;;;;;14.43;6.80;;;4.40;99.90;;;;;;4931950;29;20031;-76
2021/12/05 05:20:43;;;;;;;9.43;5.53;;;;;;;;;;4932906;29;20032;-76
2021/12/05 05:26:50;;;;;;;16.42;7.43;;;4.30;99.90;;;;;;4930176;29;20042;-76
2021/12/05 05:40:25;;;;;;;11.43;6.07;;;4.40;99.90;;;;;;4914547;29;20076;-76
2021/12/05 05:43:12;;;;;;;11.33;6.73;;;4.30;99.90;;;;;;4914533;29;20080;-76
2021/12/05 05:50:38;;;;;;;13.97;8.13;;;4.40;99.90;;;;;;4914606;29;20036;-76
2021/12/05 05:53:04;;;;;;;10.53;7.30;;;4.40;99.90;;;;;;4904710;29;20040;-76
2021/12/05 05:55:30;;;;;;;9.03;6.13;;;4.50;99.90;;;;;;4895763;29;20561;-76
2021/12/05 05:58:10;;;;;;;12.50;6.80;;;4.70;99.90;;;;;;4911787;29;20092;-75
2021/12/05 06:00:42;;;;;;;9.27;6.73;;;4.70;99.90;;;;;;4914343;29;20051;-77
2021/12/05 06:03:20;;;;;;;10.03;6.57;;;4.60;99.90;;;;;;4913712;29;20035;-76
2021/12/05 06:05:47;;;;;;;8.17;5.70;;;4.70;99.90;;;;;;4914260;29;20052;-76
2021/12/05 06:08:12;;;;;;;9.67;6.43;;;4.50;99.90;;;;;;4913918;29;20036;-76
2021/12/05 06:10:38;;;;;;;8.07;5.47;;;4.70;99.90;;;;;;4918255;29;20405;-76
2021/12/05 06:13:04;;;;;;;9.43;6.63;;;4.60;99.90;;;;;;4935003;29;20043;-76
2021/12/05 06:15:30;;;;;;;10.67;6.17;;;4.70;99.90;;;;;;4935414;29;20028;-76
2021/12/05 06:17:56;;;;;;;11.23;6.53;;;4.70;99.90;;;;;;4934606;29;20466;-76
2021/12/05 06:20:25;;;;;;;7.67;5.63;;;4.70;99.90;;;;;;4935443;29;20104;-76
2021/12/05 06:22:52;;;;;;;8.63;5.53;;;4.80;99.90;;;;;;4934698;29;20043;-76
2021/12/05 06:25:23;;;;;;;8.40;5.30;;;4.50;99.90;;;;;;4935093;29;20043;-76
2021/12/05 06:27:55;;;;;;;8.13;5.07;;;4.70;99.90;;;;;;4962076;28;20126;-76
2021/12/05 06:38:26;;;;;;;14.53;5.40;;;;;;;;;;4953841;29;20098;-76
2021/12/05 06:41:20;;;;;;;8.20;4.53;;;;;;;;;;4953437;28;20015;-76
2021/12/05 06:46:23;;;;;;;12.03;5.27;;;4.70;99.90;;;;;;4952727;28;20051;-76
2021/12/05 06:48:50;;;;;;;9.33;5.73;;;4.60;99.90;;;;;;4952719;28;20558;-76
2021/12/05 06:51:19;;;;;;;10.97;5.30;;;4.60;99.90;;;;;;4953222;28;20446;-76
2021/12/05 06:53:45;;;;;;;8.33;4.63;;;4.50;99.90;;;;;;4951934;28;20031;-76
2021/12/05 06:56:10;;;;;;;11.87;5.53;;;4.70;99.90;;;;;;4953414;29;20063;-76
2021/12/05 06:58:37;;;;;;;9.10;5.50;;;4.60;99.90;;;;;;4953863;29;20027;-76
2021/12/05 07:01:06;;;;;;;10.40;6.07;;;4.90;99.90;;;;;;4952881;29;20027;-76
2021/12/05 07:03:32;;;;;;;7.87;4.97;;;4.60;99.90;;;;;;4953725;29;20528;-76
2021/12/05 07:06:12;;;;;;;12.70;5.63;;;4.70;99.90;;;;;;4951814;29;20039;-76
2021/12/05 07:08:40;;;;;;;8.20;5.43;;;4.50;99.90;;;;;;4953689;29;20023;-76
2021/12/05 07:11:25;;;;;;;10.07;6.27;;;4.60;99.90;;;;;;4953087;29;20039;-76
2021/12/05 07:16:31;;;;;;;8.77;6.07;;;4.70;99.90;;;;;;4952994;29;20358;-76
2021/12/05 07:21:42;;;;;;;6.87;5.10;;;4.60;99.90;;;;;;4953414;29;20027;-76
2021/12/05 07:43:07;;;;;;;7.63;6.60;;;4.70;99.90;;;;;;4930124;28;20377;-76
2021/12/05 07:45:41;;;;;;;8.57;5.90;;;4.50;99.90;;;;;;4952994;29;20110;-76
2021/12/05 07:48:15;;;;;;;6.47;5.78;;;4.70;99.90;;;;;;4952865;29;20024;-76
2021/12/05 07:50:56;;;;;;;6.88;5.90;;;4.70;99.90;;;;;;4952056;29;20050;-76
2021/12/05 07:53:37;;;;;;;6.57;5.83;;;4.60;99.90;;;;;;4952817;29;20023;-76
2021/12/05 07:56:11;;;;;;;6.07;5.13;;;4.80;99.90;;;;;;4952704;29;20050;-76
2021/12/05 08:14:51;;;;;;;5.28;4.35;;;4.70;99.90;;;;;;4952535;29;20038;-76
2021/12/05 08:17:20;;;;;;;6.38;5.13;;;;;;;;;;4952636;28;20073;-76
2021/12/05 08:19:46;;;;;;;5.50;5.00;;;4.30;99.90;;;;;;4952214;29;20027;-76
2021/12/05 08:22:12;;;;;;;6.80;5.97;;;;;;;;;;4951845;29;20074;-76
2021/12/05 08:24:41;;;;;;;6.37;5.77;;;;;;;;;;4952360;29;20046;-75
2021/12/05 08:27:08;;;;;;;6.93;6.27;;;4.60;99.90;;;;;;4966419;28;20042;-72
2021/12/05 08:29:48;;;;;;;5.90;5.30;;;4.50;99.90;;;;;;4952332;29;20026;-72
2021/12/05 08:32:30;;;;;;;7.13;6.43;;;;;;;;;;4952021;29;20031;-73
2021/12/05 08:35:16;;;;;;;7.77;6.50;;;;;;;;;;4951953;29;20030;-73
2021/12/05 08:38:42;;;;;;;8.53;7.07;;;4.60;99.90;;;;;;4952125;29;20023;-73
2021/12/05 09:21:46;;;;;;;8.77;6.40;;;;;;;;;;4934217;29;20122;-71
2021/12/05 09:27:28;;;;;;;8.90;7.87;;;4.90;99.90;;;;;;4933004;29;20135;-72
2021/12/05 09:38:37;;;;;;;13.97;8.53;;;4.90;99.90;;;;;;4922749;29;20118;-72
2021/12/05 09:51:10;;;;;;;12.70;8.47;;;4.80;99.90;;;;;;4935679;29;20115;-71
2021/12/05 10:11:21;;;;;;;9.15;7.90;;;;;;;;;;4954039;29;20115;-72
2021/12/05 10:19:48;;;;;;;8.73;7.67;;;5.40;99.90;;;;;;4935326;29;20035;-71
2021/12/05 10:38:27;;;;;;;9.53;7.90;;;5.80;99.90;;;;;;4944914;29;20045;-71
2021/12/05 10:43:43;;;;;;;9.43;7.70;;;5.60;99.90;;;;;;4954004;28;20062;-71
2021/12/05 10:46:11;;;;;;;9.43;8.37;;;5.70;99.90;;;;;;4953491;29;20102;-70
2021/12/05 10:48:46;;;;;;;11.40;9.67;;;5.60;99.90;;;;;;4953906;29;20513;-70
2021/12/05 10:51:34;;;;;;;10.07;7.47;;;5.70;99.90;;;;;;4950171;29;20031;-71
2021/12/05 10:54:09;;;;;;;8.53;7.63;;;5.60;99.90;;;;;;4945145;29;20039;-71
2021/12/05 10:56:40;;;;;;;12.73;11.50;;;7.50;99.90;;;;;;4952520;28;20019;-71
2021/12/05 10:59:21;;;;;;;13.37;9.37;;;5.70;99.90;;;;;;4941341;28;20050;-71
2021/12/05 11:01:57;;;;;;;13.17;9.90;;;5.70;99.90;;;;;;4944449;29;20028;-72
2021/12/05 11:04:24;;;;;;;10.27;8.90;;;5.70;99.90;;;;;;4953373;28;20058;-71
2021/12/05 11:06:58;;;;;;;9.97;8.43;;;5.70;99.90;;;;;;4952555;28;20039;-70
2021/12/05 11:09:27;;;;;;;11.73;9.40;;;5.80;99.90;;;;;;4951794;28;20105;-71
2021/12/05 11:11:55;;;;;;;10.60;8.33;;;5.80;99.90;;;;;;4933593;29;20035;-70
2021/12/05 11:14:40;;;;;;;9.27;7.63;;;5.80;99.90;;;;;;4934011;29;20028;-70
2021/12/05 11:17:07;;;;;;;11.80;9.30;;;5.80;99.90;;;;;;4933246;29;20043;-71
2021/12/05 11:19:37;;;;;;;9.30;8.27;;;5.70;99.90;;;;;;4933872;29;20031;-71
2021/12/05 11:22:15;;;;;;;9.53;7.90;;;6.00;99.90;;;;;;4932951;29;20043;-71
2021/12/05 11:24:44;;;;;;;10.17;9.07;;;5.80;99.90;;;;;;4933846;29;20035;-71
2021/12/05 11:27:41;;;;;;;11.43;9.97;;;5.90;99.90;;;;;;4942950;29;20039;-71
2021/12/05 11:30:13;;;;;;;14.23;10.63;;;5.80;99.90;;;;;;4937052;29;20075;-71
2021/12/05 11:32:43;;;;;;;13.70;11.70;;;5.70;99.90;;;;;;4941263;29;20491;-70
2021/12/05 11:35:11;;;;;;;19.10;10.60;;;5.50;99.90;;;;;;4949596;28;20041;-71
2021/12/05 11:37:56;;;;;;;12.23;10.13;;;5.90;99.90;;;;;;4949455;29;20070;-71
2021/12/05 11:40:27;;;;;;;12.07;9.87;;;5.90;99.90;;;;;;4946167;28;20111;-71
2021/12/05 11:43:01;;;;;;;15.13;10.77;;;6.10;99.90;;;;;;4942315;29;20102;-71
2021/12/05 11:45:29;;;;;;;13.87;10.00;;;6.00;99.90;;;;;;4964757;28;20046;-71
2021/12/05 11:47:55;;;;;;;10.93;9.13;;;6.00;99.90;;;;;;4952227;28;20085;-71
2021/12/05 11:50:34;;;;;;;16.00;10.43;;;5.90;99.90;;;;;;4966996;28;20027;-71
2021/12/05 11:53:00;;;;;;;11.30;8.73;;;5.90;99.90;;;;;;4952000;28;20116;-70
2021/12/05 11:55:29;;;;;;;11.10;9.97;;;6.10;99.90;;;;;;4943687;28;20035;-70
2021/12/05 11:57:55;;;;;;;12.03;10.30;;;6.10;99.90;;;;;;4932902;29;20024;-70
2021/12/05 12:00:23;;;;;;;11.33;10.23;;;6.20;99.90;;;;;;4933467;29;20031;-71
2021/12/05 12:02:50;;;;;;;10.37;8.77;;;6.00;99.90;;;;;;4933265;29;20472;-71
2021/12/05 12:05:19;;;;;;;10.17;8.97;;;6.20;99.90;;;;;;4932747;29;20040;-71
2021/12/05 12:08:05;;;;;;;10.87;9.07;;;6.20;99.90;;;;;;4933528;29;20480;-72
2021/12/05 12:10:47;;;;;;;11.20;10.00;;;6.20;99.90;;;;;;4942808;29;20039;-71
2021/12/05 12:13:22;;;;;;;11.87;9.60;;;6.30;99.90;;;;;;4952041;28;20090;-71
2021/12/05 12:16:02;;;;;;;10.03;8.90;;;6.40;99.90;;;;;;4951891;28;20484;-71
2021/12/05 12:18:32;;;;;;;10.90;8.87;;;6.20;99.90;;;;;;4943593;29;20086;-71
2021/12/05 12:21:02;;;;;;;10.43;8.63;;;6.30;99.90;;;;;;4950540;29;20070;-71
2021/12/05 12:23:29;;;;;;;10.67;9.37;;;6.30;99.90;;;;;;4952073;28;20109;-75
2021/12/05 12:25:58;;;;;;;9.70;8.47;;;6.40;99.90;;;;;;4966360;28;20551;-73
2021/12/05 12:28:24;;;;;;;11.97;9.13;;;6.30;99.90;;;;;;4935986;28;20063;-72
2021/12/05 12:30:57;;;;;;;8.73;7.73;;;6.30;99.90;;;;;;4951756;29;20085;-72
2021/12/05 12:33:28;;;;;;;9.70;8.25;;;6.30;99.90;;;;;;4951754;28;20115;-73
2021/12/05 12:35:54;;;;;;;9.20;8.30;;;6.30;99.90;;;;;;4951934;28;20058;-71
2021/12/05 12:38:42;;;;;;;9.70;8.20;;;6.40;99.90;;;;;;4952484;29;20019;-71
2021/12/05 12:41:17;;;;;;;8.70;7.77;;;6.40;99.90;;;;;;4951866;28;20563;-71
2021/12/05 12:43:55;;;;;;;9.67;8.70;;;6.30;99.90;;;;;;4932792;29;20024;-71
2021/12/05 12:46:33;;;;;;;9.70;7.83;;;5.70;99.90;;;;;;4932498;29;20519;-71
2021/12/05 12:49:20;;;;;;;9.63;8.53;;;6.40;99.90;;;;;;4934663;29;20481;-72
2021/12/05 12:51:54;;;;;;;8.37;7.17;;;6.40;99.90;;;;;;4936539;29;20027;-71
2021/12/05 12:54:36;;;;;;;7.53;6.80;;;6.10;99.90;;;;;;4936616;29;20020;-76
2021/12/05 12:57:09;;;;;;;9.17;8.20;;;5.70;99.90;;;;;;4939689;29;20491;-71
2021/12/05 12:59:44;;;;;;;9.90;8.67;;;6.20;99.90;;;;;;4954781;28;20511;-71
2021/12/05 13:10:08;;;;;;;8.80;7.80;;;6.00;99.90;;;;;;4935686;29;20027;-72
2021/12/05 13:12:34;;;;;;;9.50;8.13;;;;;;;;;;4938570;29;20028;-72
2021/12/05 13:15:04;;;;;;;12.40;8.33;;;6.10;99.90;;;;;;4935931;29;20031;-72
2021/12/05 13:17:51;;;;;;;9.47;7.70;;;6.00;99.90;;;;;;4935966;29;20481;-72
2021/12/05 13:20:43;;;;;;;9.00;7.87;;;6.00;99.90;;;;;;4951037;29;20032;-72
2021/12/05 13:23:15;;;;;;;9.13;7.70;;;6.10;99.90;;;;;;4935750;29;20094;-72
2021/12/05 13:26:02;;;;;;;8.00;6.87;;;6.00;99.90;;;;;;4936220;29;20828;-72
2021/12/05 13:28:46;;;;;;;6.40;5.70;;;6.00;99.90;;;;;;4952267;29;20162;-72
2021/12/05 13:31:31;;;;;;;7.72;6.93;;;5.80;99.90;;;;;;4954649;28;20472;-72
2021/12/05 13:34:24;;;;;;;6.40;5.80;;;5.90;99.90;;;;;;4954753;28;20039;-72
2021/12/05 13:37:06;;;;;;;7.17;6.43;;;6.00;99.90;;;;;;4954833;29;20042;-72
2021/12/05 13:39:44;;;;;;;7.27;6.40;;;5.90;99.90;;;;;;4955018;29;20089;-72
2021/12/05 13:42:10;;;;;;;8.03;6.97;;;;;;;;;;4954502;28;20054;-72
2021/12/05 13:45:04;;;;;;;6.47;5.70;;;6.00;99.90;;;;;;4955164;29;20376;-72
2021/12/05 13:47:32;;;;;;;9.57;6.32;;;6.00;99.90;;;;;;4950276;29;20031;-72
2021/12/05 13:50:38;;;;;;;8.00;7.20;;;6.20;99.90;;;;;;4935314;29;20042;-72
2021/12/05 13:53:03;;;;;;;6.73;5.63;;;6.10;99.90;;;;;;4897942;29;20036;-72
2021/12/05 13:55:41;;;;;;;6.80;6.10;;;6.10;99.90;;;;;;4914458;29;20099;-72
2021/12/05 13:58:34;;;;;;;8.03;6.67;;;6.00;99.90;;;;;;4912616;29;20032;-72
2021/12/05 14:01:19;;;;;;;7.93;7.13;;;6.30;99.90;;;;;;4910985;29;20028;-71
2021/12/05 14:04:07;;;;;;;7.17;6.43;;;6.10;99.90;;;;;;4913813;29;20032;-72
2021/12/05 14:06:52;;;;;;;6.47;5.47;;;5.70;99.90;;;;;;4918388;29;20047;-72
2021/12/05 14:09:28;;;;;;;7.83;5.97;;;6.10;99.90;;;;;;4933220;29;20058;-72
2021/12/05 14:12:13;;;;;;;7.43;5.77;;;5.90;99.90;;;;;;4917779;29;20035;-72
2021/12/05 14:14:44;;;;;;;7.47;6.50;;;6.00;99.90;;;;;;4913515;29;20572;-72
2021/12/05 14:17:17;;;;;;;8.37;6.87;;;5.90;99.90;;;;;;4912766;29;20091;-72
2021/12/05 14:19:46;;;;;;;10.07;7.07;;;7.20;99.90;;;;;;4912759;29;20212;-72
2021/12/05 14:22:14;;;;;;;9.97;8.23;;;5.90;99.90;;;;;;4912857;29;20060;-71
2021/12/05 14:24:42;;;;;;;8.93;8.00;;;5.90;99.90;;;;;;4913651;29;20036;-72
2021/12/05 14:27:15;;;;;;;7.53;6.73;;;5.80;99.90;;;;;;4934995;29;20059;-74
2021/12/05 14:29:43;;;;;;;6.90;6.13;;;6.00;99.90;;;;;;4953733;28;20081;-72
2021/12/05 14:32:12;;;;;;;8.37;6.33;;;5.90;99.90;;;;;;4952190;29;20496;-72
2021/12/05 14:34:38;;;;;;;9.07;6.43;;;5.80;99.90;;;;;;4952398;29;20027;-72
2021/12/05 14:37:08;;;;;;;6.00;5.40;;;5.80;99.90;;;;;;4952852;29;20102;-74
2021/12/05 14:39:43;;;;;;;8.00;6.87;;;5.70;99.90;;;;;;4953454;29;20035;-73
2021/12/05 14:42:13;;;;;;;7.40;6.27;;;5.80;99.90;;;;;;4952639;29;20032;-73
2021/12/05 14:44:39;;;;;;;10.33;8.13;;;5.80;99.90;;;;;;4951694;28;20038;-73
2021/12/05 14:47:25;;;;;;;11.03;7.53;;;5.70;99.90;;;;;;4950970;28;20041;-73
2021/12/05 14:49:56;;;;;;;8.93;8.03;;;5.80;99.90;;;;;;4951907;28;20492;-73
2021/12/05 14:52:27;;;;;;;11.60;8.50;;;5.70;99.90;;;;;;4953661;29;20376;-73
2021/12/05 14:54:55;;;;;;;11.50;9.20;;;5.70;99.90;;;;;;4951398;29;20476;-73
2021/12/05 14:57:31;;;;;;;10.27;8.03;;;5.90;99.90;;;;;;4953138;29;20114;-73
2021/12/05 15:00:14;;;;;;;10.00;9.00;;;5.60;99.90;;;;;;4952295;29;20031;-74
2021/12/05 15:02:40;;;;;;;12.07;9.10;;;5.70;99.90;;;;;;4953940;28;20035;-73
2021/12/05 15:05:11;;;;;;;12.90;9.40;;;5.80;99.90;;;;;;4952350;29;20153;-73
2021/12/05 15:07:37;;;;;;;12.60;9.90;;;;;;;;;;4953124;29;20023;-74
2021/12/05 15:10:04;;;;;;;14.20;11.70;;;5.60;99.90;;;;;;4967657;28;20055;-73
2021/12/05 15:12:33;;;;;;;12.00;10.80;;;5.60;99.90;;;;;;4953164;28;20032;-73
2021/12/05 15:15:02;;;;;;;11.13;8.93;;;5.50;99.90;;;;;;4952365;28;20043;-73
2021/12/05 15:17:37;;;;;;;9.60;8.20;;;5.30;99.90;;;;;;4953213;29;20047;-74
2021/12/05 15:20:10;;;;;;;10.90;8.30;;;5.50;99.90;;;;;;4952362;28;20042;-73
2021/12/05 15:22:36;;;;;;;11.10;8.53;;;5.60;99.90;;;;;;4953234;29;20518;-73
2021/12/05 15:25:05;;;;;;;9.60;8.60;;;5.50;99.90;;;;;;4952465;29;20392;-73
2021/12/05 15:27:33;;;;;;;10.87;8.77;;;5.50;99.90;;;;;;4952412;29;20392;-73
2021/12/05 15:30:11;;;;;;;11.97;9.40;;;5.60;99.90;;;;;;4951211;29;20428;-74
2021/12/05 15:32:36;;;;;;;14.07;10.03;;;5.60;99.90;;;;;;4950983;29;20083;-73
2021/12/05 15:35:14;;;;;;;13.27;9.13;;;5.50;99.90;;;;;;4943260;29;20763;-73
2021/12/05 15:37:53;;;;;;;9.47;8.37;;;5.40;99.90;;;;;;4944437;29;20100;-74
2021/12/05 15:40:20;;;;;;;11.43;7.80;;;5.40;99.90;;;;;;4937200;29;20445;-73
2021/12/05 15:42:46;;;;;;;9.80;8.13;;;;;;;;;;4938288;29;20059;-73
2021/12/05 15:45:15;;;;;;;10.27;8.23;;;5.40;99.90;;;;;;4945607;28;20520;-73
2021/12/05 15:47:45;;;;;;;9.73;8.77;;;5.40;99.90;;;;;;4945783;29;20038;-73
2021/12/05 15:50:12;;;;;;;8.57;7.77;;;5.40;99.90;;;;;;4934679;29;20040;-73
2021/12/05 15:52:40;;;;;;;12.23;9.93;;;5.50;99.90;;;;;;4935643;29;20065;-73
2021/12/05 15:55:17;;;;;;;12.20;10.00;;;5.40;99.90;;;;;;4951633;29;20062;-76
2021/12/05 15:57:52;;;;;;;11.33;9.87;;;5.30;99.90;;;;;;4951851;28;20030;-76
2021/12/05 16:00:29;;;;;;;13.03;10.40;;;5.40;99.90;;;;;;4951853;29;20097;-77
2021/12/05 16:03:04;;;;;;;12.57;10.57;;;5.40;99.90;;;;;;4951850;28;20026;-76
2021/12/05 16:05:32;;;;;;;15.27;12.03;;;5.30;99.90;;;;;;4948824;28;20039;-76
2021/12/05 16:08:04;;;;;;;16.27;12.80;;;5.30;99.90;;;;;;4944847;29;20974;-76
2021/12/05 16:10:32;;;;;;;14.60;12.50;;;5.40;99.90;;;;;;4952003;28;20035;-76
2021/12/05 16:12:58;;;;;;;17.50;11.23;;;5.40;99.90;;;;;;4934647;29;20087;-76
2021/12/05 16:15:27;;;;;;;15.60;11.20;;;5.30;99.90;;;;;;4944381;29;20035;-77
2021/12/05 16:17:56;;;;;;;16.03;10.83;;;5.40;99.90;;;;;;4949818;29;20027;-76
2021/12/05 16:20:26;;;;;;;13.40;11.23;;;5.40;99.90;;;;;;4961675;28;20035;-77
2021/12/05 16:22:58;;;;;;;13.90;10.20;;;5.30;99.90;;;;;;4950674;29;20038;-76
2021/12/05 16:25:25;;;;;;;13.87;9.70;;;5.40;99.90;;;;;;4951820;28;20118;-77
2021/12/05 16:28:01;;;;;;;11.27;9.50;;;5.00;99.90;;;;;;4951375;29;20480;-76
2021/12/05 16:30:30;;;;;;;16.20;12.50;;;5.40;99.90;;;;;;4950562;29;20031;-76
2021/12/05 16:32:55;;;;;;;14.90;11.83;;;5.30;99.90;;;;;;4951341;28;20306;-76
2021/12/05 16:35:34;;;;;;;14.00;11.57;;;5.30;99.90;;;;;;4963351;28;20027;-76
2021/12/05 16:38:01;;;;;;;12.97;11.50;;;5.30;99.90;;;;;;4934875;29;20119;-76
2021/12/05 16:40:52;;;;;;;12.57;10.50;;;5.30;99.90;;;;;;4940888;29;20429;-76
2021/12/05 16:43:18;;;;;;;15.40;11.83;;;5.20;99.90;;;;;;4948124;29;20039;-76
2021/12/05 16:45:44;;;;;;;14.87;10.17;;;;;;;;;;4951339;29;20062;-76
2021/12/05 16:48:15;;;;;;;15.37;10.87;;;5.30;99.90;;;;;;4951349;29;20471;-76
2021/12/05 16:50:40;;;;;;;11.33;9.77;;;5.30;99.90;;;;;;4951745;28;20035;-76
2021/12/05 16:53:07;;;;;;;15.23;9.90;;;5.30;99.90;;;;;;4951502;29;20431;-76
2021/12/05 16:55:34;;;;;;;14.73;9.47;;;5.20;99.90;;;;;;4947815;28;20023;-75
2021/12/05 17:00:30;;;;;;;11.73;8.57;;;5.20;99.90;;;;;;4950073;28;20492;-74
2021/12/05 17:03:00;;;;;;;11.50;9.87;;;5.20;99.90;;;;;;4951325;28;20130;-74
2021/12/05 17:05:27;;;;;;;12.67;9.20;;;5.30;99.90;;;;;;4946540;28;20032;-74
2021/12/05 17:08:13;;;;;;;14.50;10.50;;;5.10;99.90;;;;;;4944389;29;20027;-74
2021/12/05 17:11:00;;;;;;;17.00;9.30;;;5.10;99.90;;;;;;4950033;29;20051;-77
2021/12/05 17:13:35;;;;;;;13.47;11.00;;;5.10;99.90;;;;;;4943361;28;20028;-77
2021/12/05 17:16:23;;;;;;;16.60;12.30;;;5.10;99.90;;;;;;4931976;29;20040;-77
2021/12/05 17:19:07;;;;;;;17.17;12.27;;;5.00;99.90;;;;;;4941036;29;20400;-75
2021/12/05 17:21:40;;;;;;;19.17;11.60;;;5.20;99.90;;;;;;4937706;28;20429;-75
2021/12/05 17:24:13;;;;;;;15.95;11.82;;;5.00;99.90;;;;;;4931374;29;20086;-75
2021/12/05 17:26:56;;;;;;;24.33;13.33;;;5.10;99.90;;;;;;4941994;29;20032;-75
2021/12/05 17:29:34;;;;;;;16.53;12.47;;;5.00;99.90;;;;;;4944237;29;20066;-75
2021/12/05 17:32:05;;;;;;;21.03;13.50;;;5.10;99.90;;;;;;4942858;28;20024;-75
2021/12/05 17:34:34;;;;;;;24.27;14.90;;;5.10;99.90;;;;;;4944338;29;20027;-75
2021/12/05 17:37:07;;;;;;;26.93;17.80;;;5.20;99.90;;;;;;4951504;29;20031;-75
2021/12/05 17:39:39;;;;;;;26.00;16.60;;;5.10;99.90;;;;;;4954679;28;20020;-75
2021/12/05 17:42:10;;;;;;;18.70;13.90;;;5.10;99.90;;;;;;4949427;28;20089;-75
2021/12/05 17:44:36;;;;;;;22.23;14.67;;;4.90;99.90;;;;;;4948178;29;20031;-77
2021/12/05 17:47:06;;;;;;;17.00;13.63;;;5.10;99.90;;;;;;4944739;28;20065;-75
2021/12/05 17:49:34;;;;;;;25.03;19.23;;;5.10;99.90;;;;;;4947235;29;20059;-75
2021/12/05 17:52:02;;;;;;;28.33;18.50;;;5.10;99.90;;;;;;4952773;29;20027;-75
2021/12/05 17:54:38;;;;;;;25.47;18.00;;;5.10;99.90;;;;;;4966975;28;20114;-75
2021/12/05 17:57:11;;;;;;;23.20;16.20;;;5.00;99.90;;;;;;4944135;29;20047;-75
2021/12/05 18:00:00;;;;;;;22.80;17.13;;;5.20;99.90;;;;;;4954942;28;20110;-76
2021/12/05 18:03:15;;;;;;;21.40;15.57;;;5.10;99.90;;;;;;4945771;28;20028;-75
2021/12/05 18:05:27;;;;;;;26.02;17.88;;;5.20;99.90;;;;;;4933642;29;20117;-75
2021/12/05 18:07:58;;;;;;;26.97;17.27;;;5.10;99.90;;;;;;4947001;29;20405;-74
2021/12/05 18:10:26;;;;;;;24.60;16.97;;;5.10;99.90;;;;;;4944125;29;20043;-75
2021/12/05 18:12:56;;;;;;;23.20;15.40;;;;;;;;;;4964104;28;20024;-75
2021/12/05 18:15:27;;;;;;;25.97;16.77;;;5.20;99.90;;;;;;4961152;28;20031;-75
2021/12/05 18:17:54;;;;;;;24.03;17.00;;;5.10;99.90;;;;;;4943012;29;20024;-76